createdAt,value
2018-10-07T00:00:17.680Z,1010.64
2018-10-07T00:01:27.569Z,1010.61
2018-10-07T00:02:37.138Z,1010.65
2018-10-07T00:03:46.711Z,1010.69
2018-10-07T00:04:56.547Z,1010.69
2018-10-07T00:06:06.386Z,1010.67
2018-10-07T00:07:16.548Z,1010.77
2018-10-07T00:08:26.129Z,1010.78
2018-10-07T00:09:35.158Z,1010.77
2018-10-07T00:10:45.284Z,1010.88
2018-10-07T00:11:55.112Z,1010.87
2018-10-07T00:13:04.731Z,1010.95
2018-10-07T00:14:14.842Z,1011
2018-10-07T00:15:23.872Z,1010.95
2018-10-07T00:16:33.445Z,1010.98
2018-10-07T00:17:42.751Z,1010.96
2018-10-07T00:18:52.650Z,1010.91
2018-10-07T00:20:02.762Z,1010.91
2018-10-07T00:21:12.333Z,1010.99
2018-10-07T00:22:22.172Z,1011.05
2018-10-07T00:23:32.013Z,1011.07
2018-10-07T00:24:42.119Z,1011.07
2018-10-07T00:25:51.961Z,1011.04
2018-10-07T00:27:01.803Z,1011.1
2018-10-07T00:28:11.102Z,1011.05
2018-10-07T00:29:20.937Z,1011.09
2018-10-07T00:30:30.781Z,1011.06
2018-10-07T00:31:40.891Z,1011.05
2018-10-07T00:32:50.731Z,1011.03
2018-10-07T00:34:00.845Z,1011.01
2018-10-07T00:35:10.414Z,1010.94
2018-10-07T00:36:20.304Z,1011.02
2018-10-07T00:37:30.143Z,1011.16
2018-10-07T00:38:39.983Z,1011.12
2018-10-07T00:39:49.555Z,1011.24
2018-10-07T00:40:59.136Z,1011.3
2018-10-07T00:42:08.977Z,1011.33
2018-10-07T00:43:18.811Z,1011.4
2018-10-07T00:44:28.927Z,1011.38
2018-10-07T00:45:38.770Z,1011.38
2018-10-07T00:46:48.611Z,1011.49
2018-10-07T00:47:58.508Z,1011.51
2018-10-07T00:49:08.629Z,1011.59
2018-10-07T00:50:18.470Z,1011.56
2018-10-07T00:51:28.045Z,1011.6
2018-10-07T00:52:37.882Z,1011.66
2018-10-07T00:53:47.453Z,1011.73
2018-10-07T00:54:56.482Z,1011.86
2018-10-07T00:56:05.777Z,1011.94
2018-10-07T00:57:15.883Z,1011.93
2018-10-07T00:58:25.725Z,1011.92
2018-10-07T00:59:35.856Z,1011.92
2018-10-07T01:00:45.699Z,1011.93
2018-10-07T01:01:55.811Z,1011.97
2018-10-07T01:03:05.948Z,1011.93
2018-10-07T01:04:15.782Z,1012.04
2018-10-07T01:05:25.630Z,1012.04
2018-10-07T01:06:35.461Z,1012.05
2018-10-07T01:07:44.762Z,1012.16
2018-10-07T01:08:54.340Z,1012.14
2018-10-07T01:10:03.916Z,1012.14
2018-10-07T01:11:13.814Z,1012.14
2018-10-07T01:12:23.647Z,1012.22
2018-10-07T01:13:33.488Z,1012.23
2018-10-07T01:14:43.325Z,1012.16
2018-10-07T01:15:53.433Z,1012.17
2018-10-07T01:17:03.542Z,1012.15
2018-10-07T01:18:13.378Z,1012.08
2018-10-07T01:19:23.486Z,1012.22
2018-10-07T01:20:33.336Z,1012.25
2018-10-07T01:21:43.174Z,1012.39
2018-10-07T01:22:53.338Z,1012.39
2018-10-07T01:24:02.908Z,1012.39
2018-10-07T01:25:13.022Z,1012.41
2018-10-07T01:26:22.859Z,1012.39
2018-10-07T01:27:32.995Z,1012.43
2018-10-07T01:28:42.302Z,1012.46
2018-10-07T01:29:52.142Z,1012.51
2018-10-07T01:31:02.256Z,1012.49
2018-10-07T01:32:11.829Z,1012.54
2018-10-07T01:33:21.404Z,1012.57
2018-10-07T01:34:31.516Z,1012.54
2018-10-07T01:35:41.138Z,1012.56
2018-10-07T01:36:50.722Z,1012.57
2018-10-07T01:38:00.568Z,1012.6
2018-10-07T01:39:10.138Z,1012.59
2018-10-07T01:40:20.036Z,1012.72
2018-10-07T01:41:29.610Z,1012.79
2018-10-07T01:42:39.443Z,1012.83
2018-10-07T01:43:48.739Z,1012.95
2018-10-07T01:44:58.576Z,1013
2018-10-07T01:46:08.686Z,1013.11
2018-10-07T01:47:17.986Z,1013.17
2018-10-07T01:48:27.548Z,1013.21
2018-10-07T01:49:37.386Z,1013.25
2018-10-07T01:50:46.683Z,1013.33
2018-10-07T01:51:56.030Z,1013.35
2018-10-07T01:53:05.871Z,1013.35
2018-10-07T01:54:15.983Z,1013.37
2018-10-07T01:55:25.559Z,1013.5
2018-10-07T01:56:35.410Z,1013.5
2018-10-07T01:57:45.030Z,1013.45
2018-10-07T01:58:54.889Z,1013.47
2018-10-07T02:00:04.473Z,1013.5
2018-10-07T02:01:14.041Z,1013.53
2018-10-07T02:02:23.617Z,1013.56
2018-10-07T02:03:32.647Z,1013.52
2018-10-07T02:04:42.224Z,1013.56
2018-10-07T02:05:52.341Z,1013.49
2018-10-07T02:07:01.637Z,1013.52
2018-10-07T02:08:10.938Z,1013.61
2018-10-07T02:09:21.054Z,1013.56
2018-10-07T02:10:31.166Z,1013.62
2018-10-07T02:11:41.003Z,1013.75
2018-10-07T02:12:50.584Z,1013.72
2018-10-07T02:13:59.891Z,1013.74
2018-10-07T02:15:10.298Z,1013.76
2018-10-07T02:16:20.407Z,1013.78
2018-10-07T02:17:29.973Z,1013.89
2018-10-07T02:18:40.083Z,1013.89
2018-10-07T02:19:50.196Z,1013.91
2018-10-07T02:20:59.767Z,1013.9
2018-10-07T02:22:09.603Z,1013.92
2018-10-07T02:23:19.170Z,1013.97
2018-10-07T02:24:29.006Z,1013.89
2018-10-07T02:25:38.847Z,1013.95
2018-10-07T02:26:48.198Z,1013.93
2018-10-07T02:27:58.035Z,1013.87
2018-10-07T02:29:07.600Z,1013.93
2018-10-07T02:30:17.173Z,1013.97
2018-10-07T02:31:27.307Z,1013.99
2018-10-07T02:32:37.190Z,1013.97
2018-10-07T02:33:47.036Z,1014.01
2018-10-07T02:34:56.883Z,1013.97
2018-10-07T02:36:06.731Z,1014.01
2018-10-07T02:37:16.582Z,1014.05
2018-10-07T02:38:26.148Z,1014.16
2018-10-07T02:39:35.995Z,1014.21
2018-10-07T02:40:45.829Z,1014.28
2018-10-07T02:41:55.126Z,1014.31
2018-10-07T02:43:04.427Z,1014.42
2018-10-07T02:44:14.317Z,1014.47
2018-10-07T02:45:24.435Z,1014.44
2018-10-07T02:46:34.338Z,1014.51
2018-10-07T02:47:44.177Z,1014.56
2018-10-07T02:48:53.746Z,1014.63
2018-10-07T02:50:03.314Z,1014.58
2018-10-07T02:51:13.423Z,1014.6
2018-10-07T02:52:23.259Z,1014.58
2018-10-07T02:53:33.095Z,1014.56
2018-10-07T02:54:42.934Z,1014.61
2018-10-07T02:55:52.843Z,1014.56
2018-10-07T02:57:02.409Z,1014.54
2018-10-07T02:58:12.536Z,1014.57
2018-10-07T02:59:22.384Z,1014.6
2018-10-07T03:00:32.226Z,1014.63
2018-10-07T03:01:41.845Z,1014.61
2018-10-07T03:02:51.686Z,1014.67
2018-10-07T03:04:01.538Z,1014.71
2018-10-07T03:05:11.103Z,1014.73
2018-10-07T03:06:21.229Z,1014.72
2018-10-07T03:07:30.803Z,1014.81
2018-10-07T03:08:40.653Z,1014.93
2018-10-07T03:09:50.234Z,1014.9
2018-10-07T03:10:59.793Z,1014.93
2018-10-07T03:12:09.367Z,1014.97
2018-10-07T03:13:18.986Z,1015.03
2018-10-07T03:14:28.825Z,1014.98
2018-10-07T03:15:38.675Z,1015.01
2018-10-07T03:16:48.515Z,1015.05
2018-10-07T03:17:58.087Z,1015.11
2018-10-07T03:19:07.945Z,1015.04
2018-10-07T03:20:17.244Z,1015.04
2018-10-07T03:21:26.836Z,1015.05
2018-10-07T03:22:36.682Z,1015.04
2018-10-07T03:23:46.262Z,1014.99
2018-10-07T03:24:56.379Z,1015.01
2018-10-07T03:26:06.484Z,1014.99
2018-10-07T03:27:16.592Z,1015.04
2018-10-07T03:28:26.698Z,1015.03
2018-10-07T03:29:36.943Z,1014.96
2018-10-07T03:30:46.829Z,1014.92
2018-10-07T03:31:56.996Z,1014.98
2018-10-07T03:33:06.854Z,1015
2018-10-07T03:34:16.708Z,1015
2018-10-07T03:35:26.010Z,1015.07
2018-10-07T03:36:35.632Z,1015.16
2018-10-07T03:37:45.469Z,1015.17
2018-10-07T03:38:55.583Z,1015.22
2018-10-07T03:40:05.691Z,1015.3
2018-10-07T03:41:15.526Z,1015.34
2018-10-07T03:42:25.369Z,1015.32
2018-10-07T03:43:35.210Z,1015.28
2018-10-07T03:44:44.507Z,1015.34
2018-10-07T03:45:54.613Z,1015.37
2018-10-07T03:47:04.448Z,1015.34
2018-10-07T03:48:14.334Z,1015.36
2018-10-07T03:49:23.899Z,1015.31
2018-10-07T03:50:33.742Z,1015.25
2018-10-07T03:51:43.097Z,1015.28
2018-10-07T03:52:52.389Z,1015.32
2018-10-07T03:54:02.235Z,1015.33
2018-10-07T03:55:12.342Z,1015.38
2018-10-07T03:56:22.447Z,1015.41
2018-10-07T03:57:31.750Z,1015.45
2018-10-07T03:58:41.050Z,1015.44
2018-10-07T03:59:50.895Z,1015.49
2018-10-07T04:01:01.014Z,1015.52
2018-10-07T04:02:10.855Z,1015.49
2018-10-07T04:03:20.423Z,1015.51
2018-10-07T04:04:29.723Z,1015.51
2018-10-07T04:05:39.290Z,1015.59
2018-10-07T04:06:48.861Z,1015.62
2018-10-07T04:07:57.897Z,1015.6
2018-10-07T04:09:07.464Z,1015.6
2018-10-07T04:10:17.300Z,1015.62
2018-10-07T04:11:27.418Z,1015.58
2018-10-07T04:12:36.987Z,1015.63
2018-10-07T04:13:46.840Z,1015.63
2018-10-07T04:14:56.682Z,1015.61
2018-10-07T04:16:06.253Z,1015.6
2018-10-07T04:17:16.354Z,1015.62
2018-10-07T04:18:25.922Z,1015.69
2018-10-07T04:19:35.771Z,1015.66
2018-10-07T04:20:45.342Z,1015.73
2018-10-07T04:21:55.190Z,1015.75
2018-10-07T04:23:05.031Z,1015.83
2018-10-07T04:24:14.599Z,1015.75
2018-10-07T04:25:24.709Z,1015.8
2018-10-07T04:26:34.015Z,1015.83
2018-10-07T04:27:43.590Z,1015.85
2018-10-07T04:28:53.429Z,1015.85
2018-10-07T04:30:03.544Z,1015.95
2018-10-07T04:31:13.656Z,1015.96
2018-10-07T04:32:23.222Z,1016.01
2018-10-07T04:33:32.519Z,1016.01
2018-10-07T04:34:42.092Z,1015.99
2018-10-07T04:35:51.656Z,1016.03
2018-10-07T04:37:01.498Z,1016.04
2018-10-07T04:38:11.336Z,1016.05
2018-10-07T04:39:21.182Z,1016.1
2018-10-07T04:40:31.307Z,1016.12
2018-10-07T04:41:41.424Z,1016.1
2018-10-07T04:42:50.993Z,1016.13
2018-10-07T04:44:01.103Z,1016.17
2018-10-07T04:45:10.959Z,1016.18
2018-10-07T04:46:20.545Z,1016.17
2018-10-07T04:47:31.304Z,1016.19
2018-10-07T04:48:41.152Z,1016.21
2018-10-07T04:49:50.717Z,1016.17
2018-10-07T04:51:00.555Z,1016.28
2018-10-07T04:52:10.405Z,1016.29
2018-10-07T04:53:20.246Z,1016.23
2018-10-07T04:54:29.819Z,1016.29
2018-10-07T04:55:39.937Z,1016.25
2018-10-07T04:56:49.499Z,1016.3
2018-10-07T04:57:59.344Z,1016.25
2018-10-07T04:59:09.504Z,1016.26
2018-10-07T05:00:19.457Z,1016.31
2018-10-07T05:01:29.979Z,1016.38
2018-10-07T05:02:40.091Z,1016.39
2018-10-07T05:03:49.679Z,1016.36
2018-10-07T05:04:59.795Z,1016.41
2018-10-07T05:06:09.630Z,1016.4
2018-10-07T05:07:19.197Z,1016.42
2018-10-07T05:08:28.776Z,1016.41
2018-10-07T05:09:38.347Z,1016.45
2018-10-07T05:10:48.185Z,1016.49
2018-10-07T05:11:58.115Z,1016.48
2018-10-07T05:13:07.905Z,1016.46
2018-10-07T05:14:18.017Z,1016.51
2018-10-07T05:15:27.858Z,1016.55
2018-10-07T05:16:37.151Z,1016.59
2018-10-07T05:17:46.989Z,1016.65
2018-10-07T05:18:56.559Z,1016.66
2018-10-07T05:20:06.397Z,1016.67
2018-10-07T05:21:15.967Z,1016.7
2018-10-07T05:22:25.537Z,1016.77
2018-10-07T05:23:35.642Z,1016.72
2018-10-07T05:24:45.481Z,1016.75
2018-10-07T05:25:55.334Z,1016.78
2018-10-07T05:27:04.636Z,1016.76
2018-10-07T05:28:14.770Z,1016.77
2018-10-07T05:29:24.615Z,1016.84
2018-10-07T05:30:34.446Z,1016.85
2018-10-07T05:31:44.551Z,1016.83
2018-10-07T05:32:54.395Z,1016.91
2018-10-07T05:34:04.337Z,1016.91
2018-10-07T05:35:14.193Z,1016.96
2018-10-07T05:36:24.301Z,1016.96
2018-10-07T05:37:34.151Z,1016.98
2018-10-07T05:38:44.263Z,1017.02
2018-10-07T05:39:54.096Z,1016.99
2018-10-07T05:41:03.958Z,1017.06
2018-10-07T05:42:13.798Z,1017.05
2018-10-07T05:43:23.915Z,1017.06
2018-10-07T05:44:33.626Z,1017.13
2018-10-07T05:45:43.660Z,1017.09
2018-10-07T05:46:53.496Z,1017.16
2018-10-07T05:48:03.606Z,1017.2
2018-10-07T05:49:13.714Z,1017.23
2018-10-07T05:50:23.558Z,1017.26
2018-10-07T05:51:33.397Z,1017.26
2018-10-07T05:52:42.964Z,1017.33
2018-10-07T05:53:52.808Z,1017.31
2018-10-07T05:55:02.920Z,1017.33
2018-10-07T05:56:12.213Z,1017.34
2018-10-07T05:57:22.326Z,1017.3
2018-10-07T05:58:32.444Z,1017.36
2018-10-07T05:59:42.308Z,1017.4
2018-10-07T06:00:52.422Z,1017.38
2018-10-07T06:02:01.720Z,1017.44
2018-10-07T06:03:12.269Z,1017.48
2018-10-07T06:04:22.408Z,1017.48
2018-10-07T06:05:32.520Z,1017.52
2018-10-07T06:06:42.362Z,1017.51
2018-10-07T06:07:52.477Z,1017.55
2018-10-07T06:09:02.364Z,1017.6
2018-10-07T06:10:11.949Z,1017.6
2018-10-07T06:11:21.784Z,1017.6
2018-10-07T06:12:31.631Z,1017.61
2018-10-07T06:13:40.928Z,1017.6
2018-10-07T06:14:51.123Z,1017.6
2018-10-07T06:16:01.490Z,1017.68
2018-10-07T06:17:11.338Z,1017.71
2018-10-07T06:18:21.184Z,1017.69
2018-10-07T06:19:30.765Z,1017.7
2018-10-07T06:20:40.067Z,1017.73
2018-10-07T06:21:49.904Z,1017.73
2018-10-07T06:22:59.199Z,1017.8
2018-10-07T06:24:08.765Z,1017.8
2018-10-07T06:25:18.329Z,1017.84
2018-10-07T06:26:27.905Z,1017.89
2018-10-07T06:27:38.018Z,1017.89
2018-10-07T06:28:48.134Z,1017.89
2018-10-07T06:29:58.006Z,1017.92
2018-10-07T06:31:07.503Z,1017.91
2018-10-07T06:32:17.407Z,1017.89
2018-10-07T06:33:26.990Z,1017.98
2018-10-07T06:34:36.296Z,1018.01
2018-10-07T06:35:46.397Z,1018.03
2018-10-07T06:36:56.511Z,1018.09
2018-10-07T06:38:06.088Z,1018.07
2018-10-07T06:39:15.931Z,1018.09
2018-10-07T06:40:25.777Z,1018.09
2018-10-07T06:41:35.892Z,1018.11
2018-10-07T06:42:45.461Z,1018.19
2018-10-07T06:43:55.081Z,1018.14
2018-10-07T06:45:04.378Z,1018.15
2018-10-07T06:46:14.542Z,1018.14
2018-10-07T06:47:24.670Z,1018.15
2018-10-07T06:48:34.238Z,1018.19
2018-10-07T06:49:44.076Z,1018.14
2018-10-07T06:50:53.906Z,1018.15
2018-10-07T06:52:03.204Z,1018.17
2018-10-07T06:53:12.787Z,1018.16
2018-10-07T06:54:22.354Z,1018.22
2018-10-07T06:55:32.467Z,1018.25
2018-10-07T06:56:42.305Z,1018.22
2018-10-07T06:57:52.146Z,1018.23
2018-10-07T06:59:01.720Z,1018.25
2018-10-07T07:00:11.297Z,1018.28
2018-10-07T07:01:20.595Z,1018.25
2018-10-07T07:02:30.173Z,1018.27
2018-10-07T07:03:40.288Z,1018.37
2018-10-07T07:04:50.133Z,1018.31
2018-10-07T07:05:59.974Z,1018.33
2018-10-07T07:07:09.594Z,1018.36
2018-10-07T07:08:19.705Z,1018.38
2018-10-07T07:09:29.273Z,1018.41
2018-10-07T07:10:38.572Z,1018.43
2018-10-07T07:11:48.415Z,1018.45
2018-10-07T07:12:58.350Z,1018.46
2018-10-07T07:14:08.960Z,1018.54
2018-10-07T07:15:19.073Z,1018.54
2018-10-07T07:16:29.186Z,1018.58
2018-10-07T07:17:39.027Z,1018.59
2018-10-07T07:18:48.596Z,1018.64
2018-10-07T07:19:58.538Z,1018.69
2018-10-07T07:21:08.994Z,1018.69
2018-10-07T07:22:18.564Z,1018.73
2018-10-07T07:23:28.402Z,1018.72
2018-10-07T07:24:38.020Z,1018.77
2018-10-07T07:25:47.589Z,1018.8
2018-10-07T07:26:57.693Z,1018.79
2018-10-07T07:28:06.993Z,1018.82
2018-10-07T07:29:16.552Z,1018.82
2018-10-07T07:30:26.656Z,1018.79
2018-10-07T07:31:36.490Z,1018.87
2018-10-07T07:32:46.338Z,1018.86
2018-10-07T07:33:55.909Z,1018.86
2018-10-07T07:35:05.210Z,1018.92
2018-10-07T07:36:14.506Z,1018.91
2018-10-07T07:37:24.355Z,1018.94
2018-10-07T07:38:34.188Z,1018.91
2018-10-07T07:39:43.763Z,1018.98
2018-10-07T07:40:53.067Z,1019.04
2018-10-07T07:42:02.908Z,1019.08
2018-10-07T07:43:13.140Z,1019.12
2018-10-07T07:44:22.977Z,1019.13
2018-10-07T07:45:32.821Z,1019.17
2018-10-07T07:46:42.392Z,1019.19
2018-10-07T07:47:51.696Z,1019.13
2018-10-07T07:49:01.277Z,1019.2
2018-10-07T07:50:11.444Z,1019.18
2018-10-07T07:51:21.287Z,1019.21
2018-10-07T07:52:31.137Z,1019.25
2018-10-07T07:53:41.257Z,1019.24
2018-10-07T07:54:51.105Z,1019.28
2018-10-07T07:56:00.946Z,1019.29
2018-10-07T07:57:11.062Z,1019.35
2018-10-07T07:58:21.161Z,1019.39
2018-10-07T07:59:30.192Z,1019.49
2018-10-07T08:00:39.760Z,1019.42
2018-10-07T08:01:49.865Z,1019.43
2018-10-07T08:02:59.167Z,1019.45
2018-10-07T08:04:09.011Z,1019.37
2018-10-07T08:05:18.580Z,1019.41
2018-10-07T08:06:28.431Z,1019.45
2018-10-07T08:07:38.274Z,1019.5
2018-10-07T08:08:47.707Z,1019.48
2018-10-07T08:09:58.095Z,1019.52
2018-10-07T08:11:07.989Z,1019.5
2018-10-07T08:12:18.106Z,1019.5
2018-10-07T08:13:28.229Z,1019.5
2018-10-07T08:14:37.821Z,1019.51
2018-10-07T08:15:47.394Z,1019.53
2018-10-07T08:16:56.959Z,1019.55
2018-10-07T08:18:06.799Z,1019.59
2018-10-07T08:19:16.970Z,1019.63
2018-10-07T08:20:27.090Z,1019.65
2018-10-07T08:21:36.944Z,1019.66
2018-10-07T08:22:46.794Z,1019.65
2018-10-07T08:23:56.176Z,1019.68
2018-10-07T08:25:06.235Z,1019.65
2018-10-07T08:26:15.805Z,1019.74
2018-10-07T08:27:25.642Z,1019.78
2018-10-07T08:28:35.480Z,1019.75
2018-10-07T08:29:45.381Z,1019.85
2018-10-07T08:30:55.561Z,1019.85
2018-10-07T08:32:05.149Z,1019.9
2018-10-07T08:33:14.715Z,1019.88
2018-10-07T08:34:24.566Z,1019.93
2018-10-07T08:35:34.131Z,1019.91
2018-10-07T08:36:43.701Z,1019.91
2018-10-07T08:37:53.542Z,1019.89
2018-10-07T08:39:03.379Z,1019.92
2018-10-07T08:40:12.949Z,1019.92
2018-10-07T08:41:22.249Z,1019.94
2018-10-07T08:42:32.088Z,1019.94
2018-10-07T08:43:41.927Z,1019.96
2018-10-07T08:44:51.231Z,1020.02
2018-10-07T08:46:01.078Z,1020.04
2018-10-07T08:47:11.193Z,1020.07
2018-10-07T08:48:21.040Z,1020.08
2018-10-07T08:49:30.610Z,1020.05
2018-10-07T08:50:40.297Z,1020.15
2018-10-07T08:51:50.455Z,1020.15
2018-10-07T08:53:00.576Z,1020.23
2018-10-07T08:54:10.424Z,1020.26
2018-10-07T08:55:19.991Z,1020.26
2018-10-07T08:56:29.932Z,1020.27
2018-10-07T08:57:39.642Z,1020.26
2018-10-07T08:58:49.208Z,1020.25
2018-10-07T08:59:59.056Z,1020.33
2018-10-07T09:01:08.357Z,1020.33
2018-10-07T09:02:17.653Z,1020.32
2018-10-07T09:03:27.221Z,1020.35
2018-10-07T09:04:36.786Z,1020.33
2018-10-07T09:05:46.627Z,1020.33
2018-10-07T09:06:56.462Z,1020.34
2018-10-07T09:08:06.027Z,1020.33
2018-10-07T09:09:15.595Z,1020.33
2018-10-07T09:10:24.894Z,1020.39
2018-10-07T09:11:34.197Z,1020.4
2018-10-07T09:12:44.309Z,1020.4
2018-10-07T09:13:54.150Z,1020.43
2018-10-07T09:15:04.262Z,1020.4
2018-10-07T09:16:13.850Z,1020.39
2018-10-07T09:17:23.975Z,1020.36
2018-10-07T09:18:34.083Z,1020.35
2018-10-07T09:19:43.922Z,1020.35
2018-10-07T09:20:53.770Z,1020.29
2018-10-07T09:22:04.481Z,1020.32
2018-10-07T09:23:14.320Z,1020.36
2018-10-07T09:24:24.163Z,1020.35
2018-10-07T09:25:34.317Z,1020.36
2018-10-07T09:26:43.997Z,1020.38
2018-10-07T09:27:53.510Z,1020.35
2018-10-07T09:29:02.813Z,1020.41
2018-10-07T09:30:12.933Z,1020.41
2018-10-07T09:31:23.047Z,1020.46
2018-10-07T09:32:32.945Z,1020.48
2018-10-07T09:33:43.217Z,1020.47
2018-10-07T09:34:52.511Z,1020.48
2018-10-07T09:36:02.358Z,1020.51
2018-10-07T09:37:11.939Z,1020.48
2018-10-07T09:38:21.559Z,1020.47
2018-10-07T09:39:31.474Z,1020.5
2018-10-07T09:40:40.868Z,1020.46
2018-10-07T09:41:50.707Z,1020.44
2018-10-07T09:43:00.284Z,1020.48
2018-10-07T09:44:09.315Z,1020.5
2018-10-07T09:45:18.888Z,1020.51
2018-10-07T09:46:29.005Z,1020.53
2018-10-07T09:47:38.576Z,1020.61
2018-10-07T09:48:48.143Z,1020.6
2018-10-07T09:49:58.257Z,1020.63
2018-10-07T09:51:08.385Z,1020.61
2018-10-07T09:52:17.996Z,1020.62
2018-10-07T09:53:28.360Z,1020.6
2018-10-07T09:54:37.933Z,1020.59
2018-10-07T09:55:47.772Z,1020.65
2018-10-07T09:56:57.911Z,1020.62
2018-10-07T09:58:07.771Z,1020.66
2018-10-07T09:59:17.750Z,1020.69
2018-10-07T10:00:27.323Z,1020.72
2018-10-07T10:01:36.897Z,1020.75
2018-10-07T10:02:46.736Z,1020.79
2018-10-07T10:03:56.887Z,1020.77
2018-10-07T10:05:06.668Z,1020.75
2018-10-07T10:06:16.247Z,1020.72
2018-10-07T10:07:25.822Z,1020.75
2018-10-07T10:08:35.396Z,1020.71
2018-10-07T10:09:45.017Z,1020.75
2018-10-07T10:10:55.138Z,1020.78
2018-10-07T10:12:04.934Z,1020.79
2018-10-07T10:13:15.042Z,1020.77
2018-10-07T10:14:24.344Z,1020.81
2018-10-07T10:15:34.463Z,1020.85
2018-10-07T10:16:44.031Z,1020.91
2018-10-07T10:17:53.055Z,1020.9
2018-10-07T10:19:02.626Z,1020.92
2018-10-07T10:20:12.738Z,1020.9
2018-10-07T10:21:21.770Z,1020.93
2018-10-07T10:22:31.881Z,1020.93
2018-10-07T10:23:41.716Z,1020.88
2018-10-07T10:24:51.559Z,1020.91
2018-10-07T10:26:01.129Z,1020.89
2018-10-07T10:27:10.977Z,1020.93
2018-10-07T10:28:20.277Z,1020.97
2018-10-07T10:29:29.579Z,1020.97
2018-10-07T10:30:39.151Z,1020.95
2018-10-07T10:31:49.008Z,1021.01
2018-10-07T10:32:58.318Z,1021
2018-10-07T10:34:08.169Z,1021
2018-10-07T10:35:18.045Z,1021.03
2018-10-07T10:36:27.884Z,1020.98
2018-10-07T10:37:37.465Z,1021.02
2018-10-07T10:38:47.307Z,1021.02
2018-10-07T10:39:57.199Z,1020.98
2018-10-07T10:41:08.059Z,1021.02
2018-10-07T10:42:18.167Z,1021.06
2018-10-07T10:43:28.282Z,1021.04
2018-10-07T10:44:37.856Z,1021.04
2018-10-07T10:45:47.696Z,1021
2018-10-07T10:46:57.543Z,1021.02
2018-10-07T10:48:07.711Z,1020.99
2018-10-07T10:49:17.678Z,1021.01
2018-10-07T10:50:27.301Z,1021
2018-10-07T10:51:37.417Z,1020.94
2018-10-07T10:52:47.259Z,1020.9
2018-10-07T10:53:57.114Z,1020.94
2018-10-07T10:55:06.983Z,1020.92
2018-10-07T10:56:17.575Z,1020.93
2018-10-07T10:57:27.427Z,1020.93
2018-10-07T10:58:36.999Z,1020.93
2018-10-07T10:59:46.575Z,1020.91
2018-10-07T11:00:55.900Z,1020.94
2018-10-07T11:02:06.118Z,1020.88
2018-10-07T11:03:15.966Z,1020.9
2018-10-07T11:04:25.608Z,1020.98
2018-10-07T11:05:35.909Z,1020.96
2018-10-07T11:06:45.216Z,1021.01
2018-10-07T11:07:54.523Z,1020.97
2018-10-07T11:09:04.531Z,1020.97
2018-10-07T11:10:14.789Z,1020.98
2018-10-07T11:11:24.899Z,1020.97
2018-10-07T11:12:34.741Z,1021
2018-10-07T11:13:44.609Z,1021.06
2018-10-07T11:14:54.933Z,1021.02
2018-10-07T11:16:04.505Z,1021
2018-10-07T11:17:13.819Z,1021.05
2018-10-07T11:18:23.396Z,1021.05
2018-10-07T11:19:33.419Z,1021.02
2018-10-07T11:20:43.658Z,1021.09
2018-10-07T11:21:53.772Z,1021.06
2018-10-07T11:23:03.620Z,1021.03
2018-10-07T11:24:13.729Z,1021.02
2018-10-07T11:25:23.573Z,1021.09
2018-10-07T11:26:33.139Z,1021.07
2018-10-07T11:27:42.709Z,1021.05
2018-10-07T11:28:52.545Z,1021.08
2018-10-07T11:30:02.390Z,1021.07
2018-10-07T11:31:12.240Z,1021.05
2018-10-07T11:32:22.082Z,1021.07
2018-10-07T11:33:31.112Z,1021.09
2018-10-07T11:34:41.009Z,1021.09
2018-10-07T11:35:51.459Z,1021.08
2018-10-07T11:37:00.765Z,1021.06
2018-10-07T11:38:10.073Z,1021.11
2018-10-07T11:39:19.644Z,1021.08
2018-10-07T11:40:29.494Z,1021.08
2018-10-07T11:41:39.732Z,1021.12
2018-10-07T11:42:49.575Z,1021.13
2018-10-07T11:43:58.881Z,1021.13
2018-10-07T11:45:08.731Z,1021.08
2018-10-07T11:46:18.032Z,1021.11
2018-10-07T11:47:28.151Z,1021.09
2018-10-07T11:48:37.457Z,1021.09
2018-10-07T11:49:47.025Z,1021.04
2018-10-07T11:50:56.600Z,1021
2018-10-07T11:52:06.440Z,1021.1
2018-10-07T11:53:16.284Z,1021.13
2018-10-07T11:54:25.866Z,1021.12
2018-10-07T11:55:35.712Z,1021.12
2018-10-07T11:56:45.564Z,1021.14
2018-10-07T11:57:55.420Z,1021.16
2018-10-07T11:59:04.731Z,1021.17
2018-10-07T12:00:14.299Z,1021.13
2018-10-07T12:01:23.864Z,1021.15
2018-10-07T12:02:33.775Z,1021.16
2018-10-07T12:03:43.596Z,1021.15
2018-10-07T12:04:53.170Z,1021.06
2018-10-07T12:06:03.281Z,1021.07
2018-10-07T12:07:13.140Z,1021.12
2018-10-07T12:08:22.437Z,1021.1
2018-10-07T12:09:32.277Z,1021.1
2018-10-07T12:10:41.575Z,1021.11
2018-10-07T12:11:50.879Z,1021.11
2018-10-07T12:13:00.724Z,1021.16
2018-10-07T12:14:10.339Z,1021.22
2018-10-07T12:15:20.188Z,1021.21
2018-10-07T12:16:29.800Z,1021.17
2018-10-07T12:17:39.829Z,1021.17
2018-10-07T12:18:49.149Z,1021.19
2018-10-07T12:19:58.987Z,1021.23
2018-10-07T12:21:08.564Z,1021.18
2018-10-07T12:22:18.682Z,1021.16
2018-10-07T12:23:28.525Z,1021.16
2018-10-07T12:24:38.096Z,1021.16
2018-10-07T12:25:47.944Z,1021.08
2018-10-07T12:26:57.570Z,1021.11
2018-10-07T12:28:07.425Z,1021.1
2018-10-07T12:29:17.008Z,1021.12
2018-10-07T12:30:27.120Z,1021.1
2018-10-07T12:31:37.235Z,1021.09
2018-10-07T12:32:46.854Z,1021.12
2018-10-07T12:33:56.439Z,1021.13
2018-10-07T12:35:06.288Z,1021.09
2018-10-07T12:36:16.147Z,1021.08
2018-10-07T12:37:26.260Z,1021.14
2018-10-07T12:38:36.381Z,1021.13
2018-10-07T12:39:46.495Z,1021.22
2018-10-07T12:40:56.607Z,1021.17
2018-10-07T12:42:05.908Z,1021.12
2018-10-07T12:43:15.755Z,1021.14
2018-10-07T12:44:25.868Z,1021.15
2018-10-07T12:45:35.989Z,1021.2
2018-10-07T12:46:46.102Z,1021.26
2018-10-07T12:47:55.949Z,1021.24
2018-10-07T12:49:05.802Z,1021.32
2018-10-07T12:50:15.110Z,1021.24
2018-10-07T12:51:24.948Z,1021.26
2018-10-07T12:52:34.523Z,1021.28
2018-10-07T12:53:44.362Z,1021.29
2018-10-07T12:54:54.637Z,1021.28
2018-10-07T12:56:04.226Z,1021.29
2018-10-07T12:57:14.074Z,1021.27
2018-10-07T12:58:23.916Z,1021.31
2018-10-07T12:59:34.026Z,1021.32
2018-10-07T13:00:44.141Z,1021.34
2018-10-07T13:01:54.033Z,1021.34
2018-10-07T13:03:04.158Z,1021.36
2018-10-07T13:04:14.009Z,1021.31
2018-10-07T13:05:24.125Z,1021.35
2018-10-07T13:06:33.977Z,1021.37
2018-10-07T13:07:43.283Z,1021.39
2018-10-07T13:08:52.856Z,1021.41
2018-10-07T13:10:02.432Z,1021.38
2018-10-07T13:11:12.275Z,1021.4
2018-10-07T13:12:22.120Z,1021.4
2018-10-07T13:13:31.695Z,1021.45
2018-10-07T13:14:41.541Z,1021.49
2018-10-07T13:15:51.671Z,1021.52
2018-10-07T13:17:01.786Z,1021.56
2018-10-07T13:18:11.630Z,1021.61
2018-10-07T13:19:21.494Z,1021.63
2018-10-07T13:20:31.729Z,1021.7
2018-10-07T13:21:41.038Z,1021.76
2018-10-07T13:22:51.168Z,1021.8
2018-10-07T13:24:01.015Z,1021.79
2018-10-07T13:25:10.600Z,1021.79
2018-10-07T13:26:20.168Z,1021.83
2018-10-07T13:27:29.750Z,1021.78
2018-10-07T13:28:39.359Z,1021.8
2018-10-07T13:29:49.223Z,1021.76
2018-10-07T13:30:59.123Z,1021.81
2018-10-07T13:32:08.976Z,1021.78
2018-10-07T13:33:18.820Z,1021.74
2018-10-07T13:34:28.416Z,1021.73
2018-10-07T13:35:38.264Z,1021.77
2018-10-07T13:36:47.300Z,1021.82
2018-10-07T13:37:56.602Z,1021.82
2018-10-07T13:39:05.904Z,1021.91
2018-10-07T13:40:15.482Z,1021.87
2018-10-07T13:41:25.334Z,1021.88
2018-10-07T13:42:34.685Z,1021.89
2018-10-07T13:43:44.810Z,1021.84
2018-10-07T13:44:53.845Z,1021.83
2018-10-07T13:46:03.954Z,1021.86
2018-10-07T13:47:14.086Z,1021.81
2018-10-07T13:48:23.657Z,1021.76
2018-10-07T13:49:32.965Z,1021.76
2018-10-07T13:50:42.830Z,1021.74
2018-10-07T13:51:52.674Z,1021.77
2018-10-07T13:53:02.264Z,1021.81
2018-10-07T13:54:11.880Z,1021.72
2018-10-07T13:55:22.017Z,1021.75
2018-10-07T13:56:31.861Z,1021.78
2018-10-07T13:57:41.705Z,1021.76
2018-10-07T13:58:51.830Z,1021.82
2018-10-07T14:00:01.944Z,1021.8
2018-10-07T14:01:11.521Z,1021.81
2018-10-07T14:02:21.418Z,1021.79
2018-10-07T14:03:31.032Z,1021.76
2018-10-07T14:04:41.227Z,1021.81
2018-10-07T14:05:50.822Z,1021.81
2018-10-07T14:07:00.140Z,1021.78